createdAt,value
2019-02-23T00:00:45.676Z,54.20
2019-02-23T00:03:15.118Z,52.57
2019-02-23T00:05:44.653Z,51.33
2019-02-23T00:08:14.131Z,51.17
2019-02-23T00:10:43.562Z,52.23
2019-02-23T00:13:13.005Z,53.33
2019-02-23T00:15:42.564Z,52.20
2019-02-23T00:18:12.779Z,50.80
2019-02-23T00:20:42.382Z,52.80
2019-02-23T00:23:11.799Z,49.53
2019-02-23T00:25:41.594Z,48.90
2019-02-23T00:28:11.022Z,48.87
2019-02-23T00:30:40.455Z,48.40
2019-02-23T00:33:10.271Z,48.97
2019-02-23T00:35:39.736Z,48.40
2019-02-23T00:38:09.230Z,48.77
2019-02-23T00:40:38.655Z,50.03
2019-02-23T00:43:08.077Z,50.07
2019-02-23T00:45:37.882Z,48.60
2019-02-23T00:48:07.348Z,49.47
2019-02-23T00:50:36.841Z,46.53
2019-02-23T00:53:06.280Z,46.90
2019-02-23T00:55:35.705Z,46.27
2019-02-23T00:58:05.133Z,44.93
2019-02-23T01:00:34.579Z,46.37
2019-02-23T01:03:03.983Z,45.03
2019-02-23T01:05:33.421Z,47.70
2019-02-23T01:08:03.134Z,47.97
2019-02-23T01:10:32.634Z,48.07
2019-02-23T01:13:02.404Z,47.03
2019-02-23T01:15:31.790Z,47.03
2019-02-23T01:18:01.251Z,46.27
2019-02-23T01:20:30.748Z,46.90
2019-02-23T01:23:00.251Z,47.30
2019-02-23T01:25:29.995Z,49.77
2019-02-23T01:27:59.475Z,48.67
2019-02-23T01:30:28.955Z,46.50
2019-02-23T01:32:58.821Z,48.23
2019-02-23T01:35:28.292Z,51.40
2019-02-23T01:37:57.731Z,51.13
2019-02-23T01:40:27.620Z,52.77
2019-02-23T01:42:57.232Z,55.63
2019-02-23T01:45:26.801Z,53.57
2019-02-23T01:47:56.231Z,52.40
2019-02-23T01:50:25.697Z,52.53
2019-02-23T01:52:55.095Z,48.80
2019-02-23T01:55:24.904Z,50.17
2019-02-23T01:57:54.311Z,49.30
2019-02-23T02:00:24.247Z,55.07
2019-02-23T02:02:53.827Z,51.87
2019-02-23T02:05:23.316Z,52.17
2019-02-23T02:07:52.812Z,52.37
2019-02-23T02:10:22.293Z,50.67
2019-02-23T02:12:51.758Z,51.30
2019-02-23T02:15:21.264Z,49.90
2019-02-23T02:17:50.832Z,45.23
2019-02-23T02:20:20.308Z,45.83
2019-02-23T02:22:49.725Z,44.60
2019-02-23T02:25:19.163Z,43.77
2019-02-23T02:27:48.579Z,44.47
2019-02-23T02:30:18.115Z,45.23
2019-02-23T02:32:47.604Z,47.30
2019-02-23T02:35:17.037Z,44.33
2019-02-23T02:37:46.496Z,45.47
2019-02-23T02:40:15.986Z,43.70
2019-02-23T02:42:45.434Z,41.00
2019-02-23T02:45:14.955Z,38.80
2019-02-23T02:47:44.356Z,42.50
2019-02-23T02:50:23.969Z,43.57
2019-02-23T02:52:45.348Z,44.67
2019-02-23T02:55:14.943Z,45.33
2019-02-23T02:57:44.387Z,47.77
2019-02-23T03:00:14.230Z,47.67
2019-02-23T03:02:43.678Z,45.87
2019-02-23T03:05:13.168Z,40.50
2019-02-23T03:07:42.714Z,41.80
2019-02-23T03:10:12.210Z,41.03
2019-02-23T03:12:41.700Z,41.40
2019-02-23T03:15:11.294Z,40.73
2019-02-23T03:17:40.702Z,42.73
2019-02-23T03:20:10.315Z,42.10
2019-02-23T03:22:39.739Z,41.03
2019-02-23T03:25:09.311Z,39.10
2019-02-23T03:27:38.761Z,38.30
2019-02-23T03:30:11.660Z,39.27
2019-02-23T03:32:41.130Z,36.67
2019-02-23T03:35:10.758Z,43.13
2019-02-23T03:37:40.262Z,42.27
2019-02-23T03:40:10.444Z,45.17
2019-02-23T03:42:39.879Z,42.07
2019-02-23T03:45:09.492Z,42.13
2019-02-23T03:47:38.947Z,43.70
2019-02-23T03:50:09.070Z,43.67
2019-02-23T03:52:38.661Z,42.37
2019-02-23T03:55:08.145Z,41.47
2019-02-23T03:57:37.575Z,42.83
2019-02-23T04:00:10.180Z,42.23
2019-02-23T04:02:39.649Z,42.37
2019-02-23T04:05:09.198Z,40.27
2019-02-23T04:07:38.624Z,41.67
2019-02-23T04:10:09.206Z,43.37
2019-02-23T04:12:38.646Z,40.60
2019-02-23T04:15:08.935Z,40.07
2019-02-23T04:17:38.361Z,39.30
2019-02-23T04:20:08.732Z,38.97
2019-02-23T04:22:38.184Z,38.43
2019-02-23T04:25:09.357Z,37.33
2019-02-23T04:27:38.866Z,39.67
2019-02-23T04:30:09.728Z,37.53
2019-02-23T04:32:39.206Z,37.43
2019-02-23T04:35:08.763Z,35.87
2019-02-23T04:37:38.265Z,35.37
2019-02-23T04:40:08.429Z,35.17
2019-02-23T04:42:37.884Z,34.80
2019-02-23T04:45:08.424Z,35.07
2019-02-23T04:47:37.894Z,34.53
2019-02-23T04:50:10.787Z,35.50
2019-02-23T04:52:40.529Z,35.20
2019-02-23T04:55:10.984Z,37.47
2019-02-23T04:57:40.423Z,37.60
2019-02-23T05:00:14.739Z,35.07
2019-02-23T05:02:44.149Z,35.00
2019-02-23T05:05:13.663Z,36.27
2019-02-23T05:07:43.148Z,35.97
2019-02-23T05:10:12.668Z,36.67
2019-02-23T05:12:42.151Z,37.27
2019-02-23T05:15:12.037Z,36.73
2019-02-23T05:17:41.480Z,32.00
2019-02-23T05:20:10.974Z,31.73
2019-02-23T05:22:40.421Z,36.33
2019-02-23T05:25:09.996Z,34.60
2019-02-23T05:27:39.466Z,38.27
2019-02-23T05:30:12.448Z,39.63
2019-02-23T05:32:41.940Z,37.47
2019-02-23T05:35:14.446Z,37.87
2019-02-23T05:37:43.942Z,38.20
2019-02-23T05:40:14.269Z,36.70
2019-02-23T05:42:43.836Z,36.70
2019-02-23T05:45:13.326Z,37.23
2019-02-23T05:47:42.766Z,37.23
2019-02-23T05:50:12.337Z,36.97
2019-02-23T05:52:42.082Z,33.23
2019-02-23T05:55:11.581Z,31.07
2019-02-23T05:57:41.018Z,31.47
2019-02-23T06:00:14.372Z,32.17
2019-02-23T06:02:45.078Z,30.13
2019-02-23T06:05:15.322Z,31.40
2019-02-23T06:07:44.752Z,32.47
2019-02-23T06:10:14.675Z,32.90
2019-02-23T06:12:47.753Z,34.93
2019-02-23T06:15:17.147Z,34.47
2019-02-23T06:17:46.584Z,33.63
2019-02-23T06:20:16.064Z,33.27
2019-02-23T06:22:46.819Z,34.43
2019-02-23T06:25:16.522Z,35.23
2019-02-23T06:27:45.948Z,34.17
2019-02-23T06:30:18.353Z,33.77
2019-02-23T06:32:46.881Z,30.93
2019-02-23T06:35:16.337Z,34.93
2019-02-23T06:37:48.688Z,35.17
2019-02-23T06:40:18.141Z,36.27
2019-02-23T06:42:47.877Z,34.30
2019-02-23T06:45:17.435Z,30.37
2019-02-23T06:47:47.186Z,28.23
2019-02-23T06:50:16.609Z,28.87
2019-02-23T06:52:46.054Z,31.10
2019-02-23T06:55:15.485Z,31.27
2019-02-23T06:57:46.531Z,30.57
2019-02-23T07:00:16.813Z,30.83
2019-02-23T07:02:46.245Z,31.57
2019-02-23T07:05:15.923Z,35.50
2019-02-23T07:07:45.351Z,38.87
2019-02-23T07:10:15.201Z,36.53
2019-02-23T07:12:44.642Z,39.83
2019-02-23T07:15:14.498Z,37.93
2019-02-23T07:17:44.086Z,38.43
2019-02-23T07:20:13.811Z,39.73
2019-02-23T07:22:43.252Z,38.10
2019-02-23T07:25:12.929Z,35.27
2019-02-23T07:27:42.738Z,35.10
2019-02-23T07:30:14.506Z,34.27
2019-02-23T07:32:44.469Z,33.60
2019-02-23T07:35:17.314Z,32.17
2019-02-23T07:37:46.756Z,31.77
2019-02-23T07:40:17.395Z,29.47
2019-02-23T07:42:50.027Z,27.53
2019-02-23T07:45:19.441Z,26.67
2019-02-23T07:47:48.970Z,27.63
2019-02-23T07:50:18.668Z,25.57
2019-02-23T07:52:48.355Z,25.13
2019-02-23T07:55:17.917Z,25.57
2019-02-23T07:57:47.621Z,24.37
2019-02-23T08:00:17.241Z,23.47
2019-02-23T08:02:46.668Z,24.20
2019-02-23T08:05:16.172Z,23.40
2019-02-23T08:07:45.998Z,22.27
2019-02-23T08:10:15.615Z,22.43
2019-02-23T08:12:45.050Z,20.77
2019-02-23T08:15:14.691Z,19.13
2019-02-23T08:17:44.121Z,18.10
2019-02-23T08:20:16.566Z,18.33
2019-02-23T08:22:46.024Z,16.53
2019-02-23T08:25:16.384Z,17.70
2019-02-23T08:27:45.908Z,16.60
2019-02-23T08:30:17.181Z,15.63
2019-02-23T08:32:46.619Z,15.80
2019-02-23T08:35:16.305Z,14.97
2019-02-23T08:37:45.766Z,14.87
2019-02-23T08:40:18.490Z,14.87
2019-02-23T08:42:47.939Z,14.33
2019-02-23T08:45:17.441Z,13.90
2019-02-23T08:47:47.050Z,14.83
2019-02-23T08:50:16.862Z,13.70
2019-02-23T08:52:49.901Z,14.03
2019-02-23T08:55:17.468Z,13.87
2019-02-23T08:57:49.441Z,13.93
2019-02-23T09:00:36.803Z,13.70
2019-02-23T09:02:57.532Z,13.20
2019-02-23T09:05:27.209Z,12.47
2019-02-23T09:07:56.611Z,12.70
2019-02-23T09:10:29.145Z,13.77
2019-02-23T09:13:04.029Z,13.03
2019-02-23T09:15:47.072Z,12.97
2019-02-23T09:18:16.815Z,13.07
2019-02-23T09:20:56.769Z,13.83
2019-02-23T09:23:26.332Z,12.90
2019-02-23T09:25:57.808Z,14.27
2019-02-23T09:28:49.524Z,13.00
2019-02-23T09:31:18.936Z,13.43
2019-02-23T09:33:48.606Z,13.13
2019-02-23T09:36:18.073Z,13.30
2019-02-23T09:38:47.493Z,12.57
2019-02-23T09:41:16.991Z,13.17
2019-02-23T09:43:46.457Z,11.93
2019-02-23T09:46:15.960Z,12.37
2019-02-23T09:48:45.430Z,12.40
2019-02-23T09:51:14.932Z,12.30
2019-02-23T09:53:44.360Z,11.03
2019-02-23T09:56:14.206Z,11.60
2019-02-23T09:58:43.642Z,11.37
2019-02-23T10:01:13.110Z,11.20
2019-02-23T10:03:42.616Z,11.77
2019-02-23T10:06:12.060Z,12.17
2019-02-23T10:08:41.508Z,12.10
2019-02-23T10:11:10.940Z,11.80
2019-02-23T10:13:40.381Z,11.80
2019-02-23T10:16:09.809Z,11.73
2019-02-23T10:18:39.625Z,11.47
2019-02-23T10:21:09.123Z,11.37
2019-02-23T10:23:38.554Z,11.23
2019-02-23T10:26:08.016Z,11.77
2019-02-23T10:28:37.446Z,11.77
2019-02-23T10:31:06.994Z,11.10
2019-02-23T10:33:41.393Z,11.07
2019-02-23T10:36:07.640Z,11.57
2019-02-23T10:38:37.099Z,11.77
2019-02-23T10:41:06.575Z,11.23
2019-02-23T10:43:36.029Z,11.23
2019-02-23T10:46:05.533Z,10.67
2019-02-23T10:48:34.962Z,11.33
2019-02-23T10:51:04.431Z,10.20
2019-02-23T10:53:47.597Z,10.73
2019-02-23T10:56:17.411Z,10.73
2019-02-23T10:58:46.824Z,10.87
2019-02-23T11:01:16.353Z,10.43
2019-02-23T11:03:57.924Z,10.83
2019-02-23T11:06:27.448Z,9.60
2019-02-23T11:09:01.390Z,11.30
2019-02-23T11:12:16.888Z,10.83
2019-02-23T11:14:46.809Z,10.83
2019-02-23T11:17:25.871Z,9.50
2019-02-23T11:19:55.371Z,9.87
2019-02-23T11:22:24.905Z,9.57
2019-02-23T11:24:54.485Z,10.23
2019-02-23T11:27:24.287Z,9.90
2019-02-23T11:30:11.910Z,9.37
2019-02-23T11:32:48.602Z,9.40
2019-02-23T11:35:18.044Z,10.30
2019-02-23T11:37:47.545Z,10.33
2019-02-23T11:40:17.555Z,10.37
2019-02-23T11:42:46.994Z,10.17
2019-02-23T11:45:16.526Z,9.30
2019-02-23T11:47:45.961Z,9.87
2019-02-23T11:50:16.151Z,10.00
2019-02-23T11:52:45.928Z,9.83
2019-02-23T11:55:15.497Z,9.77
2019-02-23T11:57:45.015Z,9.80
2019-02-23T12:00:15.675Z,9.77
2019-02-23T12:02:52.382Z,9.73
2019-02-23T12:05:16.349Z,8.80
2019-02-23T12:07:45.777Z,9.57
2019-02-23T12:10:16.828Z,8.53
2019-02-23T12:12:46.372Z,9.00
2019-02-23T12:15:16.080Z,8.63
2019-02-23T12:17:45.507Z,7.67
2019-02-23T12:20:14.944Z,7.80
2019-02-23T12:22:44.393Z,7.27
2019-02-23T12:25:16.088Z,7.03
2019-02-23T12:27:45.062Z,7.40
2019-02-23T12:30:14.633Z,7.57
2019-02-23T12:32:44.214Z,7.07
2019-02-23T12:35:13.756Z,7.33
2019-02-23T12:37:43.193Z,7.50
2019-02-23T12:40:12.790Z,7.37
2019-02-23T12:42:42.291Z,8.03
2019-02-23T12:45:13.573Z,7.13
2019-02-23T12:47:43.071Z,8.03
2019-02-23T12:50:13.750Z,8.53
2019-02-23T12:52:43.202Z,7.67
2019-02-23T12:55:13.060Z,7.73
2019-02-23T12:57:42.525Z,7.70
2019-02-23T13:00:19.706Z,6.83
2019-02-23T13:02:49.208Z,7.47
2019-02-23T13:05:20.906Z,7.77
2019-02-23T13:07:50.349Z,7.63
2019-02-23T13:10:19.948Z,7.83
2019-02-23T13:13:16.796Z,7.43
2019-02-23T13:16:05.617Z,7.40
2019-02-23T13:19:22.204Z,6.73
2019-02-23T13:22:02.126Z,7.33
2019-02-23T13:24:38.900Z,8.33
2019-02-23T13:27:22.178Z,7.23
2019-02-23T13:30:27.752Z,7.40
2019-02-23T13:33:28.919Z,8.00
2019-02-23T13:36:17.899Z,8.30
2019-02-23T13:39:13.319Z,7.70
2019-02-23T13:42:24.542Z,8.17
2019-02-23T13:45:24.855Z,7.93
2019-02-23T13:48:32.279Z,7.90
2019-02-23T13:51:38.513Z,7.97
2019-02-23T13:54:18.147Z,6.73
2019-02-23T13:57:04.250Z,6.80
2019-02-23T14:00:16.092Z,6.73
2019-02-23T14:03:29.635Z,6.70
2019-02-23T14:06:09.337Z,7.07
2019-02-23T14:09:04.707Z,7.33
2019-02-23T14:12:02.207Z,7.30
2019-02-23T14:14:39.287Z,8.00
2019-02-23T14:17:19.021Z,8.13
2019-02-23T14:20:24.874Z,7.93
2019-02-23T14:23:14.036Z,8.13
2019-02-23T14:26:02.788Z,9.07
2019-02-23T14:28:45.698Z,8.27
2019-02-23T14:31:31.489Z,8.33
2019-02-23T14:34:35.748Z,8.73
2019-02-23T14:37:18.395Z,10.13
2019-02-23T14:40:08.727Z,10.30
2019-02-23T14:42:54.513Z,9.97
2019-02-23T14:45:47.055Z,10.13
2019-02-23T14:48:53.252Z,9.20
2019-02-23T14:52:02.497Z,10.70
2019-02-23T14:55:00.706Z,10.67
2019-02-23T14:57:33.148Z,10.73
2019-02-23T15:00:35.610Z,10.60
2019-02-23T15:03:27.914Z,10.37
2019-02-23T15:06:13.604Z,10.27
2019-02-23T15:08:57.330Z,10.20
2019-02-23T15:12:01.831Z,9.67
2019-02-23T15:15:00.363Z,10.63
2019-02-23T15:17:57.931Z,9.90
2019-02-23T15:20:50.299Z,8.70
2019-02-23T15:23:38.799Z,9.50
2019-02-23T15:26:43.429Z,10.97
2019-02-23T15:29:31.926Z,10.60
2019-02-23T15:32:47.337Z,10.00
2019-02-23T15:35:27.931Z,9.57
2019-02-23T15:38:24.712Z,10.10
2019-02-23T15:41:13.163Z,10.33
2019-02-23T15:43:55.893Z,10.13
2019-02-23T15:46:42.920Z,11.20
2019-02-23T15:49:38.387Z,11.03
2019-02-23T15:52:08.219Z,11.37
2019-02-23T15:54:38.112Z,12.23
2019-02-23T15:57:10.800Z,11.67
2019-02-23T15:59:40.266Z,11.80
2019-02-23T16:02:10.073Z,11.83
2019-02-23T16:04:39.517Z,12.43
2019-02-23T16:07:09.083Z,11.90
2019-02-23T16:09:38.561Z,12.00
2019-02-23T16:12:08.155Z,12.87
2019-02-23T16:14:37.592Z,13.77
2019-02-23T16:17:07.085Z,13.77
2019-02-23T16:19:36.510Z,15.13
2019-02-23T16:22:10.874Z,14.50
2019-02-23T16:24:40.398Z,13.80
2019-02-23T16:27:09.940Z,13.90
2019-02-23T16:29:43.417Z,14.40
2019-02-23T16:32:16.743Z,16.10
2019-02-23T16:34:46.777Z,16.40
2019-02-23T16:37:16.404Z,14.80
2019-02-23T16:40:07.657Z,15.10
2019-02-23T16:42:37.125Z,14.37
2019-02-23T16:45:11.360Z,15.27
2019-02-23T16:48:03.462Z,13.70
2019-02-23T16:50:30.773Z,14.67
2019-02-23T16:53:06.298Z,14.53
2019-02-23T16:55:35.707Z,14.30
2019-02-23T16:58:14.680Z,14.20
2019-02-23T17:00:44.433Z,15.27
2019-02-23T17:03:13.855Z,15.93
2019-02-23T17:05:43.550Z,14.10
2019-02-23T17:08:13.307Z,14.00
2019-02-23T17:10:47.774Z,14.50
2019-02-23T17:13:17.196Z,14.33
2019-02-23T17:15:56.205Z,14.50
2019-02-23T17:18:26.073Z,13.33
2019-02-23T17:20:55.515Z,13.93
2019-02-23T17:23:24.957Z,11.50
2019-02-23T17:29:20.059Z,13.03
2019-02-23T17:31:49.497Z,14.83
2019-02-23T17:34:20.468Z,14.53
2019-02-23T17:36:49.982Z,14.73
2019-02-23T17:39:28.400Z,13.97
2019-02-23T17:41:57.994Z,15.37
2019-02-23T17:44:27.433Z,14.23
2019-02-23T17:46:57.048Z,15.37
2019-02-23T17:49:29.553Z,14.77
2019-02-23T17:51:59.051Z,16.60
2019-02-23T17:54:39.244Z,16.83
2019-02-23T17:57:13.034Z,16.73
2019-02-23T17:59:42.486Z,16.13
2019-02-23T18:02:19.711Z,14.70
2019-02-23T18:04:49.136Z,14.13
2019-02-23T18:07:18.582Z,15.53
2019-02-23T18:09:48.006Z,16.07
2019-02-23T18:12:17.412Z,15.33
2019-02-23T18:14:46.851Z,16.27
2019-02-23T18:17:16.283Z,16.33
2019-02-23T18:19:45.762Z,16.73
2019-02-23T18:22:15.324Z,16.70
2019-02-23T18:24:44.800Z,17.20
2019-02-23T18:27:14.256Z,18.20
2019-02-23T18:29:54.966Z,16.43
2019-02-23T18:32:24.469Z,16.73
2019-02-23T18:34:54.003Z,17.77
2019-02-23T18:37:26.411Z,17.53
2019-02-23T18:39:58.511Z,17.57
2019-02-23T18:42:28.123Z,17.03
2019-02-23T18:45:02.555Z,17.00
2019-02-23T18:47:46.220Z,17.57
2019-02-23T18:50:15.843Z,17.27
2019-02-23T18:52:45.292Z,17.80
2019-02-23T18:55:14.817Z,17.83
2019-02-23T18:57:44.259Z,16.60
2019-02-23T19:00:14.225Z,17.40
2019-02-23T19:02:43.675Z,16.53
2019-02-23T19:05:13.847Z,16.50
2019-02-23T19:07:43.377Z,17.07
2019-02-23T19:10:14.447Z,16.53
2019-02-23T19:12:43.899Z,17.93
2019-02-23T19:15:14.356Z,17.77
2019-02-23T19:17:44.138Z,17.40
2019-02-23T19:20:15.255Z,17.50
2019-02-23T19:22:44.690Z,17.53
2019-02-23T19:25:14.208Z,16.67
2019-02-23T19:27:43.774Z,16.10
2019-02-23T19:30:14.712Z,15.97
2019-02-23T19:32:44.192Z,16.43
2019-02-23T19:35:13.697Z,16.23
2019-02-23T19:37:43.169Z,15.97
2019-02-23T19:40:12.604Z,16.13
2019-02-23T19:42:42.038Z,17.10
2019-02-23T19:45:13.121Z,17.20
2019-02-23T19:47:43.098Z,16.13
2019-02-23T19:50:26.134Z,16.70
2019-02-23T19:52:55.652Z,17.43
2019-02-23T19:55:25.183Z,17.73
2019-02-23T19:57:54.607Z,17.17
2019-02-23T20:00:24.043Z,18.60
2019-02-23T20:02:53.499Z,18.60
2019-02-23T20:05:22.923Z,18.93
2019-02-23T20:07:52.823Z,31.87
2019-02-23T20:10:22.248Z,23.70
2019-02-23T20:12:51.682Z,31.57
2019-02-23T20:15:21.208Z,27.77
2019-02-23T20:17:50.620Z,28.57
2019-02-23T20:20:20.127Z,25.40
2019-02-23T20:22:49.555Z,24.00
2019-02-23T20:25:19.060Z,23.47
2019-02-23T20:27:48.570Z,24.70
2019-02-23T20:30:18.056Z,22.17
2019-02-23T20:32:47.502Z,26.53
2019-02-23T20:35:17.019Z,112.40
2019-02-23T20:37:46.425Z,34.77
2019-02-23T20:40:15.895Z,45.67
2019-02-23T20:42:45.340Z,31.13
2019-02-23T20:45:15.240Z,41.13
2019-02-23T20:47:44.746Z,38.03
2019-02-23T20:50:14.244Z,35.47
2019-02-23T20:52:43.834Z,32.77
2019-02-23T20:55:13.336Z,37.57
2019-02-23T20:57:42.824Z,33.47
2019-02-23T21:00:12.980Z,28.77
2019-02-23T21:02:42.433Z,25.07
2019-02-23T21:05:14.036Z,23.60
2019-02-23T21:07:43.783Z,23.20
2019-02-23T21:10:13.230Z,23.00
2019-02-23T21:12:45.266Z,23.37
2019-02-23T21:15:14.780Z,20.70
2019-02-23T21:17:44.224Z,20.63
2019-02-23T21:20:18.770Z,21.17
2019-02-23T21:22:48.209Z,24.13
2019-02-23T21:25:20.974Z,21.60
2019-02-23T21:27:50.428Z,19.13
2019-02-23T21:30:19.875Z,23.17
2019-02-23T21:32:49.297Z,21.77
2019-02-23T21:35:18.763Z,19.33
2019-02-23T21:37:48.177Z,21.03
2019-02-23T21:40:17.611Z,25.27
2019-02-23T21:42:47.044Z,26.43
2019-02-23T21:45:16.584Z,25.83
2019-02-23T21:47:45.982Z,29.90
2019-02-23T21:50:15.450Z,29.07
2019-02-23T21:52:44.891Z,28.77
2019-02-23T21:55:14.312Z,25.80
2019-02-23T21:57:43.865Z,25.87
2019-02-23T22:00:13.352Z,23.40
2019-02-23T22:02:42.859Z,19.50
2019-02-23T22:05:12.884Z,19.83
2019-02-23T22:07:42.613Z,21.07
2019-02-23T22:10:12.115Z,21.93
2019-02-23T22:12:41.843Z,20.67
2019-02-23T22:15:11.395Z,20.43
2019-02-23T22:17:40.819Z,19.20
2019-02-23T22:20:10.327Z,18.70
2019-02-23T22:22:39.757Z,19.40
2019-02-23T22:25:09.167Z,20.70
2019-02-23T22:27:38.629Z,20.67
2019-02-23T22:30:09.263Z,22.47
2019-02-23T22:32:58.036Z,20.27
2019-02-23T22:35:27.744Z,18.90
2019-02-23T22:37:57.170Z,19.37
2019-02-23T22:40:26.618Z,19.30
2019-02-23T22:42:56.041Z,20.80
2019-02-23T22:45:25.810Z,22.80
2019-02-23T22:47:55.213Z,23.27
2019-02-23T22:50:24.628Z,20.73
2019-02-23T22:52:54.074Z,23.30
2019-02-23T22:55:23.581Z,23.47
2019-02-23T22:57:53.001Z,22.97
2019-02-23T23:00:24.748Z,22.70
2019-02-23T23:02:54.251Z,26.77
2019-02-23T23:05:23.687Z,24.57
2019-02-23T23:07:53.137Z,23.53
2019-02-23T23:10:22.968Z,22.47
2019-02-23T23:12:52.384Z,22.23
2019-02-23T23:15:21.813Z,24.60
2019-02-23T23:17:51.260Z,23.03
2019-02-23T23:20:20.684Z,22.13
2019-02-23T23:22:50.165Z,22.40
2019-02-23T23:25:19.570Z,23.60
2019-02-23T23:27:49.620Z,23.23
2019-02-23T23:30:19.281Z,21.83
2019-02-23T23:32:48.683Z,22.17
2019-02-23T23:35:18.141Z,21.80
2019-02-23T23:37:47.578Z,24.57
2019-02-23T23:40:16.994Z,25.20
2019-02-23T23:42:46.797Z,25.80
2019-02-23T23:45:16.209Z,24.90
2019-02-23T23:47:45.634Z,22.20
2019-02-23T23:50:15.071Z,25.57
2019-02-23T23:52:44.599Z,24.60
2019-02-23T23:55:14.013Z,22.80
2019-02-23T23:57:43.918Z,21.30
